Port Harcourt International Airport

Airport
ICAO code: 
DNPO
IATA Code: 
PHC
Summary
ICAO Region: 
AFI
Territory: 
Location: 
Omagwa, Rivers State
Serving: 
Port Harcourt
Elevation: 
87 ft
Coordinates: 
Aerial View: 
5° 0' 49.104" N, 6° 57' 2.916" E
Metar
Observation
DNPO 170500Z 00000KT 6000 SCT007 23/22 Q1012 TEMPO 5000 BR
Station
Port Harcourt
Date/Time
2022-01-17 05:00:00
Wind direction
Wind speed
00 kts
Lowest cloud amount
scattered clouds
Temperature
23°C
Dew point
22°C
Humidity
94%
QNH
1012 hPa
Weather condition
n/a

Port Harcourt International Airport is located in Port Harcourt, a city in the Rivers State of Nigeria. It is the main airport serving southeastern Nigeria.

Climatology

Tropical Monsoon climate (Köppen climate classification Am)

Runways

Designator Length Width Surface Rops
3/21 3001 60 ASP Yes/Yes

SKYbrary Partners:

Safety knowledge contributed by: